D/T METAR WX W/DIR W/SPE G/SPE TEMP DEWP
3/07/20 23:20 EGCC 032220Z AUTO 19008KT 150V230 9999 SCT016/// OVC025/// //////TCU 16/13 Q1007 TEMPO RA S (190°) 9.2mph 16°C 13°C
3/07/20 22:50 EGCC 032150Z AUTO 20008KT 160V230 9999 FEW018 OVC024 16/13 Q1007 TEMPO RA SSW (200°) 9.2mph 16°C 13°C
3/07/20 22:20 EGCC 032120Z AUTO 19009KT 9999 -RA OVC025 16/13 Q1007 TEMPO RA -RA S (190°) 10.4mph 16°C 13°C
3/07/20 21:50 EGCC 032050Z AUTO 20009KT 9999 FEW019 OVC023 16/13 Q1007 TEMPO RA SSW (200°) 10.4mph 16°C 13°C
3/07/20 21:20 EGCC 032020Z AUTO 20008KT 150V220 9999 OVC022 16/13 Q1007 TEMPO RA SSW (200°) 9.2mph 16°C 13°C
3/07/20 20:50 EGCC 031950Z AUTO 20009KT 170V230 9999 OVC027 16/13 Q1007 TEMPO RA SSW (200°) 10.4mph 16°C 13°C
3/07/20 20:20 EGCC 031920Z AUTO 20010KT 9999 OVC021 16/13 Q1008 TEMPO RA SSW (200°) 11.5mph 16°C 13°C
3/07/20 19:50 EGCC 031850Z AUTO 20010KT 150V230 9999 SCT021 OVC025 16/13 Q1008 TEMPO RA SSW (200°) 11.5mph 16°C 13°C
3/07/20 18:50 EGCC 031750Z AUTO 20011KT 150V240 9999 OVC030 16/13 Q1008 NOSIG SSW (200°) 12.7mph 16°C 13°C
3/07/20 18:20 EGCC 031720Z AUTO 21012G24KT 170V240 9999 OVC031 16/13 Q1008 NOSIG SSW (210°) 13.8mph 27.6mph 16°C 13°C
3/07/20 17:50 EGCC 031650Z 20011G22KT 150V230 9999 SCT020 OVC028 16/13 Q1008 SSW (200°) 12.7mph 25.3mph 16°C 13°C
3/07/20 17:20 EGCC 031620Z AUTO 20011KT 9999 -RA OVC030 16/13 Q1009 -RA SSW (200°) 12.7mph 16°C 13°C
3/07/20 16:50 EGCC 031550Z AUTO 20011KT 9999 OVC030/// //////CB 16/13 Q1009 NOSIG SSW (200°) 12.7mph 16°C 13°C
3/07/20 15:50 EGCC 031450Z 21010KT 170V240 6000 -SHRA BKN033TCU 16/14 Q1009 RESHRA TEMPO SHRA -SHRA SSW (210°) 11.5mph 16°C 14°C
3/07/20 15:20 EGCC 031420Z AUTO 21015KT 9999 SCT026 OVC031 17/12 Q1009 TEMPO RA SSW (210°) 17.3mph 17°C 12°C
3/07/20 14:50 EGCC 031350Z AUTO 21012G24KT 170V240 9999 OVC026 16/13 Q1010 NOSIG SSW (210°) 13.8mph 27.6mph 16°C 13°C
3/07/20 14:20 EGCC 031320Z AUTO 21012KT 9999 SCT021 OVC028 16/13 Q1010 NOSIG SSW (210°) 13.8mph 16°C 13°C
3/07/20 13:50 EGCC 031250Z AUTO 21012KT 170V230 9999 -RA SCT021/// BKN027/// OVC032/// //////TCU 16/13 Q1010 TEMPO RA -RA SSW (210°) 13.8mph 16°C 13°C
3/07/20 13:20 EGCC 031220Z AUTO 21013KT 170V240 9999 SCT019/// BKN024/// OVC028/// //////TCU 15/13 Q1010 TEMPO RA SSW (210°) 15.0mph 15°C 13°C
3/07/20 12:50 EGCC 031150Z AUTO 21010KT 170V230 7000 -RA SCT017/// BKN026/// BKN032/// //////TCU 15/13 Q1011 TEMPO RA -RA SSW (210°) 11.5mph 15°C 13°C
3/07/20 12:20 EGCC 031120Z AUTO 21011KT 9999 -RA FEW018/// SCT032/// BKN041/// //////TCU 15/13 Q1011 TEMPO RA -RA SSW (210°) 12.7mph 15°C 13°C
3/07/20 11:20 EGCC 031020Z AUTO 21012G22KT 9999 BKN024 BKN029 15/11 Q1011 TEMPO RA SSW (210°) 13.8mph 25.3mph 15°C 11°C
3/07/20 10:50 EGCC 030950Z AUTO 21012KT 9999 BKN025/// OVC044/// //////TCU 14/11 Q1011 NOSIG SSW (210°) 13.8mph 14°C 11°C
3/07/20 10:20 EGCC 030920Z AUTO 21009KT 180V240 9999 BKN026/// OVC033/// //////TCU 14/11 Q1011 NOSIG SSW (210°) 10.4mph 14°C 11°C
3/07/20 09:50 EGCC 030850Z AUTO 21008KT 9999 OVC024/// //////TCU 13/11 Q1011 NOSIG SSW (210°) 9.2mph 13°C 11°C
3/07/20 09:20 EGCC 030820Z AUTO 20007KT 9999 -RA BKN025/// OVC042/// //////TCU 13/11 Q1011 TEMPO RA -RA SSW (200°) 8.1mph 13°C 11°C
3/07/20 08:50 EGCC 030750Z AUTO 20009KT 9999 -RA FEW017/// SCT026/// BKN038/// //////TCU 13/11 Q1011 TEMPO RA -RA SSW (200°) 10.4mph 13°C 11°C
3/07/20 07:50 EGCC 030650Z AUTO 20009KT 170V230 9999 BKN026 OVC045 13/10 Q1011 SSW (200°) 10.4mph 13°C 10°C
3/07/20 06:50 EGCC 030550Z AUTO 20007KT 9999 FEW033 OVC044 12/11 Q1012 TEMPO RA SSW (200°) 8.1mph 12°C 11°C
3/07/20 06:20 EGCC 030520Z AUTO 20008KT 9999 FEW030 12/11 Q1012 TEMPO RA SSW (200°) 9.2mph 12°C 11°C
3/07/20 05:50 EGCC 030450Z AUTO 20007KT 9999 SCT042 12/11 Q1012 TEMPO RA SSW (200°) 8.1mph 12°C 11°C
3/07/20 05:20 EGCC 030420Z AUTO 20007KT 9999 -RA NCD 12/11 Q1012 NOSIG -RA SSW (200°) 8.1mph 12°C 11°C
3/07/20 04:50 EGCC 030350Z AUTO 20008KT 170V230 9999 -RA BKN046 12/10 Q1012 TEMPO RA -RA SSW (200°) 9.2mph 12°C 10°C
3/07/20 04:20 EGCC 030320Z AUTO 20007KT 9999 -RA BKN047 12/10 Q1012 TEMPO RA -RA SSW (200°) 8.1mph 12°C 10°C
3/07/20 03:50 EGCC 030250Z AUTO 19005KT 160V220 9999 -RA NCD 12/10 Q1013 TEMPO RA -RA S (190°) 5.8mph 12°C 10°C
3/07/20 03:20 EGCC 030220Z AUTO 19005KT 150V230 9999 NCD 12/10 Q1013 TEMPO RA S (190°) 5.8mph 12°C 10°C
3/07/20 02:50 EGCC 030150Z AUTO 18005KT 150V230 9999 NCD 12/10 Q1013 TEMPO RA S (180°) 5.8mph 12°C 10°C
3/07/20 02:20 EGCC 030120Z AUTO 18004KT 9999 NCD 11/10 Q1014 NOSIG S (180°) 4.6mph 11°C 10°C
3/07/20 01:50 EGCC 030050Z AUTO 18004KT 150V220 9999 NCD 11/10 Q1014 NOSIG S (180°) 4.6mph 11°C 10°C
3/07/20 01:20 EGCC 030020Z AUTO 18003KT 9999 NCD 11/10 Q1014 NOSIG S (180°) 3.5mph 11°C 10°C
3/07/20 00:50 EGCC 022350Z AUTO 19004KT 130V220 9999 NCD 12/10 Q1014 NOSIG S (190°) 4.6mph 12°C 10°C
3/07/20 00:20 EGCC 022320Z AUTO 18004KT 140V210 9999 NCD 12/10 Q1014 NOSIG S (180°) 4.6mph 12°C 10°C
2/07/20 23:50 EGCC 022250Z AUTO 17003KT 9999 NCD 12/10 Q1014 NOSIG S (170°) 3.5mph 12°C 10°C
2/07/20 23:20 EGCC 022220Z AUTO 20003KT 9999 NCD 12/10 Q1014 SSW (200°) 3.5mph 12°C 10°C
2/07/20 22:50 EGCC 022150Z AUTO 22003KT 9999 NCD 13/10 Q1014 NOSIG SW (220°) 3.5mph 13°C 10°C
2/07/20 21:50 EGCC 022050Z AUTO VRB03KT 9999 NCD 14/10 Q1014 N (0°) 3.5mph 14°C 10°C
2/07/20 21:20 EGCC 022020Z AUTO 29006KT 9999 NCD 14/10 Q1014 NOSIG WNW (290°) 6.9mph 14°C 10°C
2/07/20 20:50 EGCC 021950Z AUTO 26007KT 9999 NCD 14/10 Q1014 W (260°) 8.1mph 14°C 10°C
2/07/20 20:20 EGCC 021920Z AUTO 29007KT 9999 NCD 15/10 Q1014 WNW (290°) 8.1mph 15°C 10°C
2/07/20 19:50 EGCC 021850Z AUTO 29007KT 9999 NCD 16/10 Q1013 WNW (290°) 8.1mph 16°C 10°C
2/07/20 19:20 EGCC 021820Z AUTO 28008KT 9999 FEW026 16/10 Q1013 W (280°) 9.2mph 16°C 10°C
2/07/20 18:50 EGCC 021750Z AUTO 29008KT 9999 SCT024 17/11 Q1013 WNW (290°) 9.2mph 17°C 11°C
2/07/20 18:20 EGCC 021720Z AUTO 28010KT 9999 SCT025 17/11 Q1013 W (280°) 11.5mph 17°C 11°C
2/07/20 17:50 EGCC 021650Z AUTO 30008KT 260V330 9999 FEW043/// //////CB 18/11 Q1013 NOSIG WNW (300°) 9.2mph 18°C 11°C
2/07/20 17:20 EGCC 021620Z AUTO 29007KT 9999 SCT024/// BKN042/// BKN048/// //////CB 16/12 Q1013 NOSIG WNW (290°) 8.1mph 16°C 12°C
2/07/20 17:20 EGCC 021620Z AUTO 29007KT 9999 SCT024/// BKN042/// BKN048/// //////CB 16/12 Q1013 WNW (290°) 8.1mph 16°C 12°C
2/07/20 16:50 EGCC 021550Z AUTO 27006KT 9999 -RA FEW019 SCT027 BKN037 16/12 Q1012 -RA W (270°) 6.9mph 16°C 12°C
2/07/20 16:20 EGCC 021520Z AUTO 31005KT 280V360 9999 SCT018 BKN028 17/13 Q1012 NW (310°) 5.8mph 17°C 13°C
2/07/20 15:50 EGCC 021450Z AUTO 26004KT 180V330 9999 BKN017 BKN029 17/13 Q1012 W (260°) 4.6mph 17°C 13°C
2/07/20 15:20 EGCC 021420Z AUTO 30004KT 260V320 9999 BKN018 BKN029 16/13 Q1012 WNW (300°) 4.6mph 16°C 13°C
2/07/20 14:50 EGCC 021350Z AUTO 28006KT 240V320 9999 BKN017 OVC041 16/13 Q1012 W (280°) 6.9mph 16°C 13°C
2/07/20 14:20 EGCC 021320Z AUTO VRB03KT 9999 SCT016 SCT025 OVC034 16/13 Q1012 N (0°) 3.5mph 16°C 13°C
2/07/20 13:50 EGCC 021250Z AUTO 34004KT 300V030 9999 OVC014 15/12 Q1011 NNW (340°) 4.6mph 15°C 12°C
2/07/20 13:20 EGCC 021220Z AUTO VRB03KT 9999 BKN013 OVC021 15/13 Q1011 N (0°) 3.5mph 15°C 13°C
2/07/20 12:50 EGCC 021150Z AUTO VRB03KT 9999 BKN014 OVC020 15/13 Q1011 N (0°) 3.5mph 15°C 13°C
2/07/20 12:20 EGCC 021120Z AUTO VRB03KT 9999 OVC010 15/13 Q1011 N (0°) 3.5mph 15°C 13°C
2/07/20 11:50 EGCC 021050Z AUTO 07004KT 9999 BKN007 OVC012 14/13 Q1010 ENE (70°) 4.6mph 14°C 13°C
2/07/20 11:20 EGCC 021020Z AUTO VRB03KT 9999 BKN006 OVC010 14/13 Q1010 N (0°) 3.5mph 14°C 13°C
2/07/20 10:50 EGCC 020950Z 08004KT 020V150 9999 5000S BKN006 BKN020 OVC025 14/13 Q1010 E (80°) 4.6mph 14°C 13°C
2/07/20 10:20 EGCC 020920Z AUTO 07005KT 9999 -RA BKN006 BKN017 OVC022 13/13 Q1009 -RA ENE (70°) 5.8mph 13°C 13°C
2/07/20 09:50 EGCC 020850Z AUTO 07005KT 040V100 9999 BKN006/// OVC021/// //////TCU 13/13 Q1009 ENE (70°) 5.8mph 13°C 13°C
2/07/20 09:20 EGCC 020820Z 06005KT 9999 4000W BKN003CB OVC018 13/13 Q1009 RERA REDZ TEMPO 2000 +RA BKN002 ENE (60°) 5.8mph 13°C 13°C
2/07/20 08:50 EGCC 020750Z 03005KT 3500 RADZ BKN003TCU OVC009 13/13 Q1008 TEMPO 2000 +RA BKN002 RA DZ NNE (30°) 5.8mph 13°C 13°C
2/07/20 08:20 EGCC 020720Z VRB03KT 3000 BR BKN003TCU BKN006 13/13 Q1008 TEMPO 2000 RADZ BKN002 BR N (0°) 3.5mph 13°C 13°C
2/07/20 07:50 EGCC 020650Z VRB02KT 3000 BR OVC003TCU 13/13 Q1008 TEMPO 2000 RADZ BKN002 BR N (0°) 2.3mph 13°C 13°C
2/07/20 07:20 EGCC 020620Z AUTO 22003KT 3200 -DZ BKN003 OVC009 13/12 Q1007 -DZ SW (220°) 3.5mph 13°C 12°C
2/07/20 06:50 EGCC 020550Z VRB02KT 4600 -DZ SCT003TCU OVC008 13/12 Q1007 TEMPO 4000 RADZ BKN002 -DZ N (0°) 2.3mph 13°C 12°C
2/07/20 06:20 EGCC 020520Z AUTO 21003KT 9999 FEW004/// OVC010/// //////TCU 13/12 Q1007 4000 RADZ BKN004 RA DZ SSW (210°) 3.5mph 13°C 12°C
2/07/20 05:50 EGCC 020450Z AUTO VRB03KT 9999 BKN011/// OVC033/// //////TCU 13/12 Q1007 TEMPO 4000 RADZ BKN008 N (0°) 3.5mph 13°C 12°C
2/07/20 05:20 EGCC 020420Z AUTO VRB03KT 9999 BKN014/// BKN020/// OVC032/// //////TCU 13/12 Q1007 TEMPO 4000 RADZ BKN008 N (0°) 3.5mph 13°C 12°C
2/07/20 04:50 EGCC 020350Z AUTO VRB03KT 9999 FEW004/// BKN012/// OVC026/// //////CB 13/12 Q1007 TEMPO 4000 RADZ BKN004 N (0°) 3.5mph 13°C 12°C
2/07/20 04:20 EGCC 020320Z AUTO VRB03KT 9999 BKN010/// OVC015/// //////CB 13/12 Q1007 TEMPO 4000 RADZ BKN008 N (0°) 3.5mph 13°C 12°C
2/07/20 03:50 EGCC 020250Z AUTO 21004KT 9999 BKN011/// OVC028/// //////CB 13/12 Q1007 TEMPO 4000 RADZ BKN008 SSW (210°) 4.6mph 13°C 12°C
2/07/20 03:20 EGCC 020220Z AUTO 20004KT 170V230 7000 -RA OVC011 13/12 Q1007 TEMPO 4000 RADZ -RA SSW (200°) 4.6mph 13°C 12°C
2/07/20 02:50 EGCC 020150Z AUTO 19003KT 9999 -RA OVC011 13/13 Q1007 TEMPO 4000 RADZ -RA S (190°) 3.5mph 13°C 13°C
2/07/20 02:20 EGCC 020120Z AUTO VRB01KT 9999 OVC010/// //////TCU 13/13 Q1007 NOSIG N (0°) 1.2mph 13°C 13°C
2/07/20 01:50 EGCC 020050Z AUTO VRB01KT 6000 -RA FEW004 BKN008 OVC015 13/13 Q1007 RERA REDZ -RA N (0°) 1.2mph 13°C 13°C
2/07/20 01:20 EGCC 020020Z AUTO 27004KT 210V310 1800 +RA BKN003 OVC013 13/13 Q1007 REDZ TEMPO 1400 BKN002 +RA W (270°) 4.6mph 13°C 13°C
2/07/20 00:50 EGCC 012350Z AUTO 25004KT 1700 RADZ BKN002/// OVC009/// //////TCU 13/13 Q1007 RERA TEMPO 1400 +RADZ RA DZ WSW (250°) 4.6mph 13°C 13°C
2/07/20 00:20 EGCC 012320Z AUTO VRB02KT 1600 +RA BKN002/// OVC008/// //////TCU 13/13 Q1007 REDZ TEMPO 1400 +RA N (0°) 2.3mph 13°C 13°C
1/07/20 23:50 EGCC 012250Z VRB01KT 4500 DZ SCT004 BKN007 13/13 Q1007 RERA TEMPO 1400 +RADZ DZ N (0°) 1.2mph 13°C 13°C
1/07/20 23:20 EGCC 012220Z AUTO 33003KT 2000 RADZ SCT003/// BKN006/// BKN010/// //////TCU 13/13 Q1007 RA DZ NNW (330°) 3.5mph 13°C 13°C
1/07/20 22:50 EGCC 012150Z AUTO VRB01KT 5000 -RADZ FEW004/// BKN014/// OVC020/// //////TCU 13/13 Q1006 RERA REDZ TEMPO 1400 +RADZ -RA -DZ N (0°) 1.2mph 13°C 13°C
1/07/20 22:20 EGCC 012120Z AUTO VRB01KT 1600 +RA FEW003/// SCT009/// BKN014/// //////TCU 13/13 Q1006 REDZ TEMPO 1400 BKN003 +RA N (0°) 1.2mph 13°C 13°C
1/07/20 21:50 EGCC 012050Z AUTO 25003KT 3900 -DZ FEW004/// BKN017/// BKN023/// //////TCU 14/13 Q1006 RERA REDZ TEMPO RADZ -DZ WSW (250°) 3.5mph 14°C 13°C
1/07/20 21:20 EGCC 012020Z AUTO 24004KT 7000 -RA FEW016/// BKN020/// OVC029/// //////TCU 14/13 Q1006 RERA TEMPO 4000 RA -RA WSW (240°) 4.6mph 14°C 13°C